createdAt,value
2017-04-01T00:00:03.643Z,20.50
2017-04-01T00:01:04.216Z,20.47
2017-04-01T00:02:04.790Z,20.41
2017-04-01T00:03:05.362Z,20.40
2017-04-01T00:04:05.933Z,20.32
2017-04-01T00:05:06.520Z,20.43
2017-04-01T00:06:07.092Z,20.36
2017-04-01T00:07:07.664Z,20.29
2017-04-01T00:08:08.236Z,20.26
2017-04-01T00:09:08.813Z,20.31
2017-04-01T00:10:09.382Z,20.29
2017-04-01T00:11:09.953Z,20.24
2017-04-01T00:12:10.530Z,20.31
2017-04-01T00:13:11.298Z,20.29
2017-04-01T00:14:11.872Z,20.13
2017-04-01T00:15:12.443Z,20.21
2017-04-01T00:16:13.015Z,20.21
2017-04-01T00:17:13.587Z,20.22
2017-04-01T00:18:14.160Z,20.18
2017-04-01T00:19:14.745Z,20.14
2017-04-01T00:20:15.319Z,20.18
2017-04-01T00:21:15.891Z,20.14
2017-04-01T00:22:16.465Z,20.09
2017-04-01T00:23:17.236Z,20.07
2017-04-01T00:24:17.810Z,20.09
2017-04-01T00:25:18.381Z,20.07
2017-04-01T00:26:18.954Z,20.07
2017-04-01T00:27:19.526Z,20.09
2017-04-01T00:28:20.097Z,20.07
2017-04-01T00:29:20.671Z,20.00
2017-04-01T00:30:21.242Z,19.91
2017-04-01T00:31:21.815Z,20.00
2017-04-01T00:32:22.387Z,19.96
2017-04-01T00:33:22.958Z,19.96
2017-04-01T00:34:23.532Z,19.86
2017-04-01T00:35:24.103Z,19.85
2017-04-01T00:36:24.675Z,19.85
2017-04-01T00:37:25.246Z,19.86
2017-04-01T00:38:25.817Z,19.85
2017-04-01T00:39:26.389Z,19.81
2017-04-01T00:40:26.961Z,19.79
2017-04-01T00:41:27.533Z,19.79
2017-04-01T00:42:28.105Z,19.74
2017-04-01T00:43:28.677Z,19.77
2017-04-01T00:44:29.248Z,19.79
2017-04-01T00:45:29.819Z,19.74
2017-04-01T00:46:30.392Z,19.70
2017-04-01T00:47:30.963Z,19.70
2017-04-01T00:48:31.737Z,19.69
2017-04-01T00:49:32.309Z,19.58
2017-04-01T00:50:32.883Z,19.67
2017-04-01T00:51:33.454Z,19.69
2017-04-01T00:52:34.027Z,19.59
2017-04-01T00:53:34.596Z,19.67
2017-04-01T00:54:35.169Z,19.62
2017-04-01T00:55:35.742Z,19.58
2017-04-01T00:56:36.313Z,19.56
2017-04-01T00:57:36.885Z,19.56
2017-04-01T00:58:37.457Z,19.56
2017-04-01T00:59:38.028Z,19.48
2017-04-01T01:00:38.615Z,19.51
2017-04-01T01:01:39.201Z,19.51
2017-04-01T01:02:39.771Z,19.47
2017-04-01T01:03:40.542Z,19.51
2017-04-01T01:04:41.113Z,19.48
2017-04-01T01:05:41.685Z,19.44
2017-04-01T01:06:42.256Z,19.49
2017-04-01T01:07:42.827Z,19.48
2017-04-01T01:08:43.400Z,19.37
2017-04-01T01:09:43.971Z,19.45
2017-04-01T01:10:44.551Z,19.49
2017-04-01T01:11:45.132Z,19.49
2017-04-01T01:12:45.703Z,19.37
2017-04-01T01:13:46.275Z,19.36
2017-04-01T01:14:46.846Z,19.48
2017-04-01T01:15:47.418Z,19.36
2017-04-01T01:16:47.990Z,19.36
2017-04-01T01:17:48.561Z,19.44
2017-04-01T01:18:49.335Z,19.36
2017-04-01T01:19:49.927Z,19.39
2017-04-01T01:20:50.518Z,19.30
2017-04-01T01:21:51.091Z,19.29
2017-04-01T01:22:51.665Z,19.26
2017-04-01T01:23:52.239Z,19.21
2017-04-01T01:24:52.812Z,19.24
2017-04-01T01:25:53.386Z,19.29
2017-04-01T01:26:53.957Z,19.19
2017-04-01T01:27:54.531Z,19.19
2017-04-01T01:28:55.106Z,19.18
2017-04-01T01:29:55.697Z,19.22
2017-04-01T01:30:56.269Z,19.21
2017-04-01T01:31:56.843Z,19.14
2017-04-01T01:32:57.416Z,19.14
2017-04-01T01:33:58.189Z,19.18
2017-04-01T01:34:58.764Z,19.18
2017-04-01T01:35:59.335Z,19.19
2017-04-01T01:36:59.907Z,19.18
2017-04-01T01:38:00.497Z,19.21
2017-04-01T01:39:01.071Z,19.22
2017-04-01T01:40:01.643Z,19.15
2017-04-01T01:41:02.216Z,19.15
2017-04-01T01:42:02.787Z,19.15
2017-04-01T01:43:03.358Z,19.15
2017-04-01T01:44:03.932Z,19.12
2017-04-01T01:45:04.504Z,19.11
2017-04-01T01:46:05.076Z,19.19
2017-04-01T01:47:05.647Z,19.15
2017-04-01T01:48:06.220Z,19.09
2017-04-01T01:49:06.994Z,19.07
2017-04-01T01:50:07.567Z,19.07
2017-04-01T01:51:08.141Z,19.00
2017-04-01T01:52:08.716Z,19.08
2017-04-01T01:53:09.286Z,19.09
2017-04-01T01:54:09.861Z,19.08
2017-04-01T01:55:10.434Z,19.09
2017-04-01T01:56:11.009Z,19.00
2017-04-01T01:57:11.581Z,18.99
2017-04-01T01:58:12.154Z,18.99
2017-04-01T01:59:12.728Z,19.00
2017-04-01T02:00:13.303Z,18.99
2017-04-01T02:01:13.873Z,19.00
2017-04-01T02:02:14.446Z,19.02
2017-04-01T02:03:15.017Z,18.92
2017-04-01T02:04:15.791Z,18.98
2017-04-01T02:05:16.365Z,18.92
2017-04-01T02:06:16.954Z,18.98
2017-04-01T02:07:17.526Z,18.92
2017-04-01T02:08:18.099Z,18.96
2017-04-01T02:09:18.677Z,18.95
2017-04-01T02:10:19.262Z,18.88
2017-04-01T02:11:19.837Z,18.84
2017-04-01T02:12:20.409Z,18.88
2017-04-01T02:13:20.983Z,18.93
2017-04-01T02:14:21.558Z,18.80
2017-04-01T02:15:22.131Z,18.92
2017-04-01T02:16:22.701Z,18.83
2017-04-01T02:17:23.276Z,18.81
2017-04-01T02:18:23.848Z,18.86
2017-04-01T02:19:24.622Z,18.80
2017-04-01T02:20:25.194Z,18.77
2017-04-01T02:21:25.769Z,18.80
2017-04-01T02:22:26.339Z,18.77
2017-04-01T02:23:26.914Z,18.77
2017-04-01T02:24:27.502Z,18.75
2017-04-01T02:25:28.094Z,18.71
2017-04-01T02:26:28.666Z,18.73
2017-04-01T02:27:29.239Z,18.77
2017-04-01T02:28:29.813Z,18.70
2017-04-01T02:29:30.387Z,18.71
2017-04-01T02:30:30.959Z,18.74
2017-04-01T02:31:31.531Z,18.62
2017-04-01T02:32:32.106Z,18.62
2017-04-01T02:33:32.677Z,18.66
2017-04-01T02:34:33.253Z,18.63
2017-04-01T02:35:33.839Z,18.66
2017-04-01T02:36:34.410Z,18.62
2017-04-01T02:37:34.984Z,18.59
2017-04-01T02:38:35.573Z,18.59
2017-04-01T02:39:36.147Z,18.63
2017-04-01T02:40:36.720Z,18.59
2017-04-01T02:41:37.293Z,18.60
2017-04-01T02:42:37.867Z,18.59
2017-04-01T02:43:38.440Z,18.59
2017-04-01T02:44:39.213Z,18.50
2017-04-01T02:45:39.783Z,18.53
2017-04-01T02:46:40.354Z,18.50
2017-04-01T02:47:40.924Z,18.52
2017-04-01T02:48:41.496Z,18.55
2017-04-01T02:49:42.070Z,18.56
2017-04-01T02:50:42.641Z,18.60
2017-04-01T02:51:43.214Z,18.60
2017-04-01T02:52:43.788Z,18.62
2017-04-01T02:53:44.360Z,18.62
2017-04-01T02:54:44.934Z,18.58
2017-04-01T02:55:45.507Z,18.56
2017-04-01T02:56:46.080Z,18.58
2017-04-01T02:57:46.654Z,18.62
2017-04-01T02:58:47.226Z,18.60
2017-04-01T02:59:48.000Z,18.55
2017-04-01T03:00:48.571Z,18.52
2017-04-01T03:01:49.144Z,18.52
2017-04-01T03:02:49.717Z,18.52
2017-04-01T03:03:50.290Z,18.52
2017-04-01T03:04:50.893Z,18.45
2017-04-01T03:05:51.437Z,18.55
2017-04-01T03:06:52.008Z,18.45
2017-04-01T03:07:52.581Z,18.47
2017-04-01T03:08:53.152Z,18.41
2017-04-01T03:09:53.926Z,18.50
2017-04-01T03:10:54.498Z,18.45
2017-04-01T03:11:55.069Z,18.50
2017-04-01T03:12:55.644Z,18.49
2017-04-01T03:13:56.216Z,18.55
2017-04-01T03:14:56.787Z,18.47
2017-04-01T03:15:57.360Z,18.45
2017-04-01T03:16:57.932Z,18.53
2017-04-01T03:17:58.505Z,18.50
2017-04-01T03:18:59.077Z,18.44
2017-04-01T03:19:59.649Z,18.44
2017-04-01T03:21:00.223Z,18.49
2017-04-01T03:22:00.795Z,18.35
2017-04-01T03:23:01.368Z,18.45
2017-04-01T03:24:01.939Z,18.45
2017-04-01T03:25:02.715Z,18.38
2017-04-01T03:26:03.283Z,18.50
2017-04-01T03:27:03.854Z,18.45
2017-04-01T03:28:04.428Z,18.45
2017-04-01T03:29:05.001Z,18.40
2017-04-01T03:30:05.573Z,18.47
2017-04-01T03:31:06.146Z,18.47
2017-04-01T03:32:06.718Z,18.47
2017-04-01T03:33:07.292Z,18.38
2017-04-01T03:34:07.882Z,18.40
2017-04-01T03:35:08.654Z,18.37
2017-04-01T03:36:09.226Z,18.34
2017-04-01T03:37:09.816Z,18.29
2017-04-01T03:38:10.388Z,18.40
2017-04-01T03:39:10.977Z,18.28
2017-04-01T03:40:11.550Z,18.31
2017-04-01T03:41:12.124Z,18.31
2017-04-01T03:42:12.695Z,18.23
2017-04-01T03:43:13.284Z,18.25
2017-04-01T03:44:13.857Z,18.23
2017-04-01T03:45:14.445Z,18.23
2017-04-01T03:46:15.021Z,18.19
2017-04-01T03:47:15.591Z,18.26
2017-04-01T03:48:16.163Z,18.25
2017-04-01T03:49:16.734Z,18.10
2017-04-01T03:50:17.521Z,18.10
2017-04-01T03:51:18.096Z,18.13
2017-04-01T03:52:18.686Z,18.11
2017-04-01T03:53:19.257Z,18.05
2017-04-01T03:54:19.830Z,18.13
2017-04-01T03:55:20.405Z,18.07
2017-04-01T03:56:20.993Z,18.15
2017-04-01T03:57:21.566Z,18.13
2017-04-01T03:58:22.137Z,18.13
2017-04-01T03:59:22.710Z,18.07
2017-04-01T04:00:23.282Z,18.07
2017-04-01T04:01:23.854Z,18.04
2017-04-01T04:02:24.427Z,18.20
2017-04-01T04:03:25.001Z,18.03
2017-04-01T04:04:25.570Z,18.15
2017-04-01T04:05:26.343Z,18.13
2017-04-01T04:06:26.917Z,18.15
2017-04-01T04:07:27.488Z,18.08
2017-04-01T04:08:28.062Z,18.07
2017-04-01T04:09:28.636Z,18.08
2017-04-01T04:10:29.209Z,18.16
2017-04-01T04:11:29.779Z,18.11
2017-04-01T04:12:30.356Z,18.13
2017-04-01T04:13:30.924Z,18.07
2017-04-01T04:14:31.497Z,18.10
2017-04-01T04:15:32.085Z,18.07
2017-04-01T04:16:32.658Z,18.08
2017-04-01T04:17:33.231Z,18.05
2017-04-01T04:18:33.808Z,18.15
2017-04-01T04:19:34.375Z,17.97
2017-04-01T04:20:35.148Z,18.05
2017-04-01T04:21:35.720Z,18.03
2017-04-01T04:22:36.291Z,18.00
2017-04-01T04:23:36.865Z,18.05
2017-04-01T04:24:37.436Z,18.08
2017-04-01T04:25:38.008Z,18.01
2017-04-01T04:26:38.582Z,17.98
2017-04-01T04:27:39.153Z,18.08
2017-04-01T04:28:39.727Z,18.07
2017-04-01T04:29:40.299Z,18.16
2017-04-01T04:30:40.871Z,17.95
2017-04-01T04:31:41.444Z,18.07
2017-04-01T04:32:42.014Z,18.07
2017-04-01T04:33:42.587Z,17.95
2017-04-01T04:34:43.161Z,18.13
2017-04-01T04:35:43.933Z,18.07
2017-04-01T04:36:44.504Z,17.89
2017-04-01T04:37:45.082Z,18.11
2017-04-01T04:38:45.651Z,18.01
2017-04-01T04:39:46.224Z,18.11
2017-04-01T04:40:46.797Z,18.13
2017-04-01T04:41:47.371Z,17.98
2017-04-01T04:42:47.961Z,18.15
2017-04-01T04:43:48.533Z,18.08
2017-04-01T04:44:49.108Z,18.10
2017-04-01T04:45:49.678Z,17.94
2017-04-01T04:46:50.249Z,18.07
2017-04-01T04:47:50.820Z,18.07
2017-04-01T04:48:51.394Z,18.03
2017-04-01T04:49:51.967Z,18.11
2017-04-01T04:50:52.742Z,18.08
2017-04-01T04:51:53.314Z,18.07
2017-04-01T04:52:53.888Z,18.11
2017-04-01T04:53:54.459Z,18.00
2017-04-01T04:54:55.032Z,18.07
2017-04-01T04:55:55.608Z,18.05
2017-04-01T04:56:56.181Z,18.11
2017-04-01T04:57:56.771Z,18.00
2017-04-01T04:58:57.345Z,18.11
2017-04-01T04:59:57.918Z,18.07
2017-04-01T05:00:58.492Z,17.95
2017-04-01T05:01:59.064Z,18.03
2017-04-01T05:02:59.640Z,18.03
2017-04-01T05:04:00.213Z,18.07
2017-04-01T05:05:00.786Z,18.07
2017-04-01T05:06:01.561Z,18.00
2017-04-01T05:07:02.134Z,17.94
2017-04-01T05:08:02.708Z,17.97
2017-04-01T05:09:03.282Z,17.97
2017-04-01T05:10:03.856Z,17.95
2017-04-01T05:11:04.431Z,18.00
2017-04-01T05:12:05.008Z,17.98
2017-04-01T05:13:05.580Z,17.92
2017-04-01T05:14:06.155Z,17.92
2017-04-01T05:15:06.733Z,17.94
2017-04-01T05:16:07.306Z,17.97
2017-04-01T05:17:07.882Z,17.89
2017-04-01T05:18:08.464Z,17.86
2017-04-01T05:19:09.032Z,17.90
2017-04-01T05:20:09.608Z,17.92
2017-04-01T05:21:10.384Z,17.83
2017-04-01T05:22:10.960Z,17.87
2017-04-01T05:23:11.534Z,17.83
2017-04-01T05:24:12.111Z,17.83
2017-04-01T05:25:12.704Z,17.83
2017-04-01T05:26:13.297Z,17.76
2017-04-01T05:27:13.872Z,17.82
2017-04-01T05:28:14.447Z,17.80
2017-04-01T05:29:15.021Z,17.72
2017-04-01T05:30:15.598Z,17.72
2017-04-01T05:31:16.172Z,17.71
2017-04-01T05:32:16.745Z,17.72
2017-04-01T05:33:17.322Z,17.71
2017-04-01T05:34:17.897Z,17.68
2017-04-01T05:35:18.484Z,17.68
2017-04-01T05:36:19.261Z,17.67
2017-04-01T05:37:19.837Z,17.65
2017-04-01T05:38:20.412Z,17.67
2017-04-01T05:39:20.988Z,17.68
2017-04-01T05:40:21.564Z,17.64
2017-04-01T05:41:22.139Z,17.57
2017-04-01T05:42:22.715Z,17.59
2017-04-01T05:43:23.288Z,17.59
2017-04-01T05:44:23.865Z,17.54
2017-04-01T05:45:24.440Z,17.56
2017-04-01T05:46:25.014Z,17.57
2017-04-01T05:47:07.970Z,17.64
2017-04-01T05:48:08.546Z,17.52
2017-04-01T05:49:09.120Z,17.64
2017-04-01T05:50:09.697Z,17.48
2017-04-01T05:51:10.271Z,17.51
2017-04-01T05:52:10.848Z,17.49
2017-04-01T05:53:11.422Z,17.51
2017-04-01T05:54:11.997Z,17.45
2017-04-01T05:55:12.572Z,17.52
2017-04-01T05:56:13.145Z,17.51
2017-04-01T05:57:13.922Z,17.51
2017-04-01T05:58:14.496Z,17.45
2017-04-01T05:59:15.087Z,17.51
2017-04-01T06:00:15.664Z,17.56
2017-04-01T06:01:16.240Z,17.52
2017-04-01T06:02:16.815Z,17.48
2017-04-01T06:03:17.390Z,17.63
2017-04-01T06:04:17.966Z,17.56
2017-04-01T06:05:18.541Z,17.48
2017-04-01T06:06:19.116Z,17.52
2017-04-01T06:07:19.693Z,17.64
2017-04-01T06:08:20.269Z,17.57
2017-04-01T06:09:20.844Z,17.59
2017-04-01T06:10:21.418Z,17.67
2017-04-01T06:11:21.994Z,17.57
2017-04-01T06:12:22.569Z,17.57
2017-04-01T06:13:23.145Z,17.65
2017-04-01T06:14:23.721Z,17.64
2017-04-01T06:15:24.298Z,17.65
2017-04-01T06:16:24.873Z,17.67
2017-04-01T06:17:25.447Z,17.68
2017-04-01T06:18:26.024Z,17.65
2017-04-01T06:19:26.599Z,17.67
2017-04-01T06:20:27.174Z,17.68
2017-04-01T06:21:27.752Z,17.72
2017-04-01T06:22:28.344Z,17.80
2017-04-01T06:23:28.920Z,17.82
2017-04-01T06:24:29.495Z,17.83
2017-04-01T06:25:30.071Z,17.80
2017-04-01T06:26:30.647Z,17.86
2017-04-01T06:27:31.225Z,17.79
2017-04-01T06:28:31.800Z,17.83
2017-04-01T06:29:32.377Z,17.74
2017-04-01T06:30:32.955Z,17.80
2017-04-01T06:31:33.533Z,17.72
2017-04-01T06:32:34.108Z,17.76
2017-04-01T06:33:34.685Z,17.76
2017-04-01T06:34:35.264Z,17.80
2017-04-01T06:35:35.838Z,17.82
2017-04-01T06:36:36.415Z,17.85
2017-04-01T06:37:36.990Z,17.79
2017-04-01T06:38:37.568Z,17.80
2017-04-01T06:39:38.144Z,17.76
2017-04-01T06:40:38.720Z,17.72
2017-04-01T06:41:39.297Z,17.70
2017-04-01T06:42:39.875Z,17.68
2017-04-01T06:43:40.450Z,17.72
2017-04-01T06:44:41.025Z,17.65
2017-04-01T06:45:41.602Z,17.70
2017-04-01T06:46:42.177Z,17.71
2017-04-01T06:47:42.771Z,17.65
2017-04-01T06:48:43.346Z,17.67
2017-04-01T06:49:43.923Z,17.54
2017-04-01T06:50:44.500Z,17.59
2017-04-01T06:51:45.079Z,17.72
2017-04-01T06:52:45.652Z,17.63
2017-04-01T06:53:46.227Z,17.57
2017-04-01T06:54:46.806Z,17.63
2017-04-01T06:55:47.382Z,17.70
2017-04-01T06:56:47.956Z,17.72
2017-04-01T06:57:48.732Z,17.76
2017-04-01T06:58:49.308Z,17.79
2017-04-01T06:59:49.882Z,17.76
2017-04-01T07:00:50.463Z,17.71
2017-04-01T07:01:51.040Z,17.80
2017-04-01T07:02:51.616Z,17.85
2017-04-01T07:03:52.192Z,17.85
2017-04-01T07:04:52.771Z,17.80
2017-04-01T07:05:53.347Z,17.83
2017-04-01T07:06:53.927Z,17.82
2017-04-01T07:07:54.500Z,17.85
2017-04-01T07:08:55.079Z,17.89
2017-04-01T07:09:55.656Z,17.86
2017-04-01T07:10:56.234Z,17.94
2017-04-01T07:11:56.811Z,17.97
2017-04-01T07:12:57.390Z,17.97
2017-04-01T07:13:57.967Z,17.94
2017-04-01T07:14:58.544Z,18.05
2017-04-01T07:15:59.122Z,18.00
2017-04-01T07:16:59.699Z,18.01
2017-04-01T07:18:00.294Z,18.11
2017-04-01T07:19:00.889Z,18.11
2017-04-01T07:20:01.467Z,18.15
2017-04-01T07:21:02.045Z,18.11
2017-04-01T07:22:02.626Z,18.18
2017-04-01T07:23:03.201Z,18.19
2017-04-01T07:24:03.780Z,18.04
2017-04-01T07:25:04.358Z,18.08
2017-04-01T07:26:04.955Z,18.16
2017-04-01T07:27:05.534Z,18.08
2017-04-01T07:28:06.110Z,18.13
2017-04-01T07:29:06.689Z,18.08
2017-04-01T07:30:07.268Z,18.18
2017-04-01T07:31:07.848Z,18.16
2017-04-01T07:32:08.425Z,18.10
2017-04-01T07:33:09.203Z,18.15
2017-04-01T07:34:09.783Z,18.22
2017-04-01T07:35:10.377Z,18.19
2017-04-01T07:36:10.956Z,18.18
2017-04-01T07:37:11.538Z,18.22
2017-04-01T07:38:12.112Z,18.19
2017-04-01T07:39:12.690Z,18.29
2017-04-01T07:40:13.270Z,18.38
2017-04-01T07:41:13.848Z,18.26
2017-04-01T07:42:14.426Z,18.31
2017-04-01T07:43:15.004Z,18.38
2017-04-01T07:44:15.584Z,18.35
2017-04-01T07:45:16.161Z,18.38
2017-04-01T07:46:16.744Z,18.45
2017-04-01T07:47:17.316Z,18.43
2017-04-01T07:48:17.895Z,18.47
2017-04-01T07:49:18.473Z,18.52
2017-04-01T07:50:19.051Z,18.47
2017-04-01T07:51:19.645Z,18.50
2017-04-01T07:52:20.224Z,18.59
2017-04-01T07:53:20.803Z,18.58
2017-04-01T07:54:21.384Z,18.65
2017-04-01T07:55:21.961Z,18.63
2017-04-01T07:56:22.541Z,18.73
2017-04-01T07:57:23.119Z,18.75
2017-04-01T07:58:23.914Z,18.66
2017-04-01T07:59:24.492Z,18.62
2017-04-01T08:00:25.070Z,18.73
2017-04-01T08:01:25.648Z,18.77
2017-04-01T08:02:26.229Z,18.88
2017-04-01T08:03:26.808Z,18.88
2017-04-01T08:04:27.383Z,18.77
2017-04-01T08:05:27.980Z,18.78
2017-04-01T08:06:28.559Z,18.88
2017-04-01T08:07:29.137Z,18.89
2017-04-01T08:08:29.718Z,18.95
2017-04-01T08:09:30.296Z,18.89
2017-04-01T08:10:30.875Z,18.88
2017-04-01T08:11:31.452Z,18.96
2017-04-01T08:12:32.033Z,19.00
2017-04-01T08:13:32.611Z,19.09
2017-04-01T08:14:33.189Z,19.04
2017-04-01T08:15:33.766Z,19.14
2017-04-01T08:16:34.347Z,19.12
2017-04-01T08:17:34.924Z,19.22
2017-04-01T08:18:35.502Z,19.24
2017-04-01T08:19:36.082Z,19.29
2017-04-01T08:20:36.662Z,19.22
2017-04-01T08:21:37.240Z,19.39
2017-04-01T08:22:37.819Z,19.45
2017-04-01T08:23:38.399Z,19.47
2017-04-01T08:24:38.977Z,19.48
2017-04-01T08:25:39.557Z,19.52
2017-04-01T08:26:40.137Z,19.62
2017-04-01T08:27:40.715Z,19.69
2017-04-01T08:28:41.295Z,19.85
2017-04-01T08:29:41.875Z,19.94
2017-04-01T08:30:42.454Z,19.91
2017-04-01T08:31:43.034Z,19.94
2017-04-01T08:32:43.615Z,20.02
2017-04-01T08:33:44.195Z,19.89
2017-04-01T08:34:44.774Z,19.86
2017-04-01T08:35:45.353Z,19.85
2017-04-01T08:36:45.935Z,19.86
2017-04-01T08:37:46.515Z,19.85
2017-04-01T08:38:47.313Z,19.86
2017-04-01T08:39:47.898Z,19.92
2017-04-01T08:40:48.476Z,19.94
2017-04-01T08:41:49.057Z,20.07
2017-04-01T08:42:49.637Z,20.07
2017-04-01T08:43:50.236Z,20.04
2017-04-01T08:44:50.817Z,20.04
2017-04-01T08:45:51.397Z,20.09
2017-04-01T08:46:51.979Z,20.06
2017-04-01T08:47:52.559Z,20.06
2017-04-01T08:48:53.141Z,20.22
2017-04-01T08:49:53.721Z,20.16
2017-04-01T08:50:54.304Z,20.31
2017-04-01T08:51:54.884Z,20.37
2017-04-01T08:52:55.465Z,20.37
2017-04-01T08:53:56.064Z,20.36
2017-04-01T08:54:56.645Z,20.40
2017-04-01T08:55:57.226Z,20.48
2017-04-01T08:56:57.809Z,20.37
2017-04-01T08:57:58.390Z,20.47
2017-04-01T08:58:58.971Z,20.40
2017-04-01T08:59:59.554Z,20.41
2017-04-01T09:01:00.138Z,20.40
2017-04-01T09:02:00.718Z,20.41
2017-04-01T09:03:01.317Z,20.41
2017-04-01T09:04:02.099Z,20.43
2017-04-01T09:05:02.679Z,20.40
2017-04-01T09:06:03.261Z,20.41
2017-04-01T09:07:03.841Z,20.50
2017-04-01T09:08:04.422Z,20.50
2017-04-01T09:09:05.005Z,20.59
2017-04-01T09:10:05.586Z,20.59
2017-04-01T09:11:06.168Z,20.59
2017-04-01T09:12:06.749Z,20.66
2017-04-01T09:13:07.337Z,20.60
2017-04-01T09:14:07.914Z,20.58
2017-04-01T09:15:08.496Z,20.60
2017-04-01T09:16:09.078Z,20.63
2017-04-01T09:17:09.661Z,20.77
2017-04-01T09:18:10.243Z,20.81
2017-04-01T09:19:10.825Z,20.84
2017-04-01T09:20:11.406Z,20.92
2017-04-01T09:21:12.007Z,20.96
2017-04-01T09:22:12.589Z,21.03
2017-04-01T09:23:13.171Z,21.18
2017-04-01T09:24:13.752Z,21.17
2017-04-01T09:25:14.334Z,21.18
2017-04-01T09:26:14.915Z,21.14
2017-04-01T09:27:15.499Z,21.17
2017-04-01T09:28:16.082Z,21.12
2017-04-01T09:29:16.681Z,21.09
2017-04-01T09:30:17.264Z,21.00
2017-04-01T09:31:17.847Z,21.00
2017-04-01T09:32:18.429Z,21.00
2017-04-01T09:33:19.015Z,21.05
2017-04-01T09:34:19.596Z,21.03
2017-04-01T09:35:20.178Z,21.02
2017-04-01T09:36:20.760Z,21.00
2017-04-01T09:37:21.344Z,21.02
2017-04-01T09:38:21.924Z,21.09
2017-04-01T09:39:22.707Z,21.20
2017-04-01T09:40:23.296Z,21.20
2017-04-01T09:41:23.873Z,21.25
2017-04-01T09:42:24.454Z,21.27
2017-04-01T09:43:25.036Z,21.33
2017-04-01T09:44:25.620Z,21.37
2017-04-01T09:45:26.204Z,21.40
2017-04-01T09:46:26.785Z,21.48
2017-04-01T09:47:27.368Z,21.39
2017-04-01T09:48:27.967Z,21.55
2017-04-01T09:49:28.750Z,21.60
2017-04-01T09:50:29.331Z,21.54
2017-04-01T09:51:29.931Z,21.66
2017-04-01T09:52:30.514Z,21.67
2017-04-01T09:53:31.095Z,21.75
2017-04-01T09:54:31.679Z,21.82
2017-04-01T09:55:32.262Z,21.83
2017-04-01T09:56:32.846Z,21.91
2017-04-01T09:57:33.429Z,21.95
2017-04-01T09:58:34.014Z,21.99
2017-04-01T09:59:34.813Z,21.96
2017-04-01T10:00:35.414Z,22.00
2017-04-01T10:01:35.994Z,22.10
2017-04-01T10:02:36.578Z,22.15
2017-04-01T10:03:37.160Z,22.15
2017-04-01T10:04:37.745Z,22.13
2017-04-01T10:05:38.327Z,22.20
2017-04-01T10:06:38.911Z,22.25
2017-04-01T10:07:39.494Z,22.36
2017-04-01T10:08:40.080Z,22.39
2017-04-01T10:09:40.663Z,22.48
2017-04-01T10:10:41.248Z,22.59
2017-04-01T10:11:41.850Z,22.66
2017-04-01T10:12:42.450Z,22.60
2017-04-01T10:13:43.035Z,22.72
2017-04-01T10:14:43.619Z,22.78
2017-04-01T10:15:44.203Z,22.85
2017-04-01T10:16:44.793Z,22.98
2017-04-01T10:17:45.375Z,23.06
2017-04-01T10:18:45.959Z,23.06
2017-04-01T10:19:46.545Z,23.17
2017-04-01T10:20:47.129Z,23.21
2017-04-01T10:21:47.716Z,23.34
2017-04-01T10:22:48.317Z,23.24
2017-04-01T10:23:48.903Z,23.34
2017-04-01T10:24:49.487Z,23.39
2017-04-01T10:25:50.091Z,23.31
2017-04-01T10:26:50.677Z,23.39
2017-04-01T10:27:51.260Z,23.43
2017-04-01T10:28:51.844Z,23.40
2017-04-01T10:29:52.431Z,23.55
2017-04-01T10:30:53.016Z,23.50
2017-04-01T10:31:53.618Z,23.48
2017-04-01T10:32:54.202Z,23.44
2017-04-01T10:33:54.786Z,23.50
2017-04-01T10:34:55.570Z,23.46
2017-04-01T10:35:56.153Z,23.43
2017-04-01T10:36:56.740Z,23.37
2017-04-01T10:37:57.322Z,23.28
2017-04-01T10:38:57.907Z,23.17
2017-04-01T10:39:58.491Z,23.27
2017-04-01T10:40:59.094Z,23.27
2017-04-01T10:41:59.678Z,23.23
2017-04-01T10:43:00.263Z,23.34
2017-04-01T10:44:00.848Z,23.39
2017-04-01T10:45:01.450Z,23.36
2017-04-01T10:46:02.039Z,23.39
2017-04-01T10:47:02.623Z,23.41
2017-04-01T10:48:03.206Z,23.47
2017-04-01T10:49:03.791Z,23.47
2017-04-01T10:50:04.575Z,23.50
2017-04-01T10:51:05.160Z,23.56
2017-04-01T10:52:05.746Z,23.61
2017-04-01T10:53:06.330Z,23.66
2017-04-01T10:54:06.917Z,23.69
2017-04-01T10:55:07.505Z,23.73
2017-04-01T10:56:08.087Z,23.65
2017-04-01T10:57:08.673Z,23.80
2017-04-01T10:58:09.259Z,23.83
2017-04-01T10:59:09.846Z,23.91
2017-04-01T11:00:10.431Z,23.92
2017-04-01T11:01:11.020Z,24.02
2017-04-01T11:02:11.600Z,23.96
2017-04-01T11:03:12.186Z,24.02
2017-04-01T11:04:12.772Z,24.01
2017-04-01T11:05:13.357Z,24.03
2017-04-01T11:06:13.942Z,24.14
2017-04-01T11:07:14.529Z,24.17
2017-04-01T11:08:15.135Z,24.13
2017-04-01T11:09:15.717Z,24.16
2017-04-01T11:10:16.305Z,24.18
2017-04-01T11:11:16.889Z,24.23
2017-04-01T11:12:17.474Z,24.13
2017-04-01T11:13:18.060Z,24.16
2017-04-01T11:14:18.646Z,24.18
2017-04-01T11:15:19.234Z,24.17
2017-04-01T11:16:19.818Z,24.18
2017-04-01T11:17:20.402Z,24.10
2017-04-01T11:18:20.989Z,24.17
2017-04-01T11:19:21.574Z,24.20
2017-04-01T11:20:22.359Z,24.20
2017-04-01T11:21:22.945Z,24.20
2017-04-01T11:22:23.532Z,24.28
2017-04-01T11:23:24.117Z,24.32
2017-04-01T11:24:24.703Z,24.29
2017-04-01T11:25:25.288Z,24.42
2017-04-01T11:26:25.874Z,24.42
2017-04-01T11:27:26.464Z,24.39
2017-04-01T11:28:27.045Z,24.42
2017-04-01T11:29:27.630Z,24.38
2017-04-01T11:30:28.215Z,24.39
2017-04-01T11:31:28.801Z,24.40
2017-04-01T11:32:29.387Z,24.42
2017-04-01T11:33:29.970Z,24.38
2017-04-01T11:34:30.554Z,24.38
2017-04-01T11:35:31.157Z,24.40
2017-04-01T11:36:31.741Z,24.40
2017-04-01T11:37:32.328Z,24.39
2017-04-01T11:38:32.912Z,24.35
2017-04-01T11:39:33.497Z,24.30
2017-04-01T11:40:34.083Z,24.29
2017-04-01T11:41:34.669Z,24.29
2017-04-01T11:42:35.272Z,24.30
2017-04-01T11:43:35.859Z,24.36
2017-04-01T11:44:36.447Z,24.29
2017-04-01T11:45:37.231Z,24.35
2017-04-01T11:46:37.817Z,24.36
2017-04-01T11:47:38.404Z,24.36
2017-04-01T11:48:38.988Z,24.36
2017-04-01T11:49:39.574Z,24.39
2017-04-01T11:50:40.159Z,24.39
2017-04-01T11:51:40.745Z,24.36
2017-04-01T11:52:41.332Z,24.26
2017-04-01T11:53:41.913Z,24.26
2017-04-01T11:54:42.514Z,24.26
2017-04-01T11:55:43.100Z,24.28
2017-04-01T11:56:43.685Z,24.28
2017-04-01T11:57:44.271Z,24.28
2017-04-01T11:58:44.857Z,24.32
2017-04-01T11:59:45.443Z,24.33
2017-04-01T12:00:46.227Z,24.30
2017-04-01T12:01:46.811Z,24.29
2017-04-01T12:02:47.395Z,24.29
2017-04-01T12:03:47.980Z,24.29
2017-04-01T12:04:48.567Z,24.21
2017-04-01T12:05:49.154Z,24.28
2017-04-01T12:06:49.738Z,24.32
2017-04-01T12:07:50.324Z,24.35
2017-04-01T12:08:50.907Z,24.40
2017-04-01T12:09:51.498Z,24.36
2017-04-01T12:10:52.085Z,24.35
2017-04-01T12:11:52.664Z,24.35
2017-04-01T12:12:53.247Z,24.40
2017-04-01T12:13:53.834Z,24.39
2017-04-01T12:14:54.419Z,24.40
2017-04-01T12:15:55.014Z,24.38
2017-04-01T12:16:55.590Z,24.38
2017-04-01T12:17:56.175Z,24.38
2017-04-01T12:18:56.762Z,24.33
2017-04-01T12:19:57.345Z,24.29
2017-04-01T12:20:57.930Z,24.29
2017-04-01T12:21:58.515Z,24.24
2017-04-01T12:22:59.100Z,24.17
2017-04-01T12:23:59.684Z,24.10
2017-04-01T12:25:00.268Z,24.28
2017-04-01T12:26:00.853Z,24.23
2017-04-01T12:27:01.440Z,24.28
2017-04-01T12:28:02.026Z,24.40
2017-04-01T12:29:02.612Z,24.42
2017-04-01T12:30:03.198Z,24.53
2017-04-01T12:31:03.781Z,24.47
2017-04-01T12:32:04.367Z,24.61
2017-04-01T12:33:04.952Z,24.55
2017-04-01T12:34:05.538Z,24.55
2017-04-01T12:35:06.121Z,24.54
2017-04-01T12:36:06.709Z,24.50
2017-04-01T12:37:07.295Z,24.58
2017-04-01T12:38:07.879Z,24.54
2017-04-01T12:39:08.465Z,24.53
2017-04-01T12:40:09.051Z,24.61
2017-04-01T12:41:09.787Z,24.74
2017-04-01T12:42:10.373Z,24.73
2017-04-01T12:43:10.959Z,24.69
2017-04-01T12:44:11.548Z,24.78
2017-04-01T12:45:12.131Z,24.86
2017-04-01T12:46:12.719Z,24.85
2017-04-01T12:47:13.303Z,24.85
2017-04-01T12:48:13.890Z,24.91
2017-04-01T12:49:14.475Z,24.84
2017-04-01T12:50:15.061Z,24.95
2017-04-01T12:51:15.650Z,24.96
2017-04-01T12:52:16.231Z,24.92
2017-04-01T12:53:16.816Z,24.89
2017-04-01T12:54:17.399Z,24.86
2017-04-01T12:55:17.984Z,24.85
2017-04-01T12:56:18.770Z,24.70
2017-04-01T12:57:19.355Z,24.74
2017-04-01T12:58:19.939Z,24.60
2017-04-01T12:59:20.526Z,24.68